Time;durP1;ratioP1;P1;durP2;ratioP2;P2;SDS_P1;SDS_P2;PMS_P1;PMS_P2;Temp;Humidity;BMP_temperature;BMP_pressure;BME280_temperature;BME280_humidity;BME280_pressure;Samples;Min_cycle;Max_cycle;Signal;HPM_P1;HPM_P2
2021/09/13 00:00:04;;;;;;;33.08;16.88;;;;;;;15.08;52.98;94908.13;4896377;29;20137;-79
2021/09/13 00:02:30;;;;;;;37.83;15.18;;;;;;;15.10;53.12;94903.41;4879136;29;20535;-83
2021/09/13 00:07:25;;;;;;;34.03;17.83;;;;;;;15.06;53.29;94903.16;4953260;23;20067;-79
2021/09/13 00:09:50;;;;;;;29.75;15.73;;;;;;;15.04;53.22;94899.22;4921301;29;20040;-80
2021/09/13 00:12:16;;;;;;;26.55;14.80;;;;;;;15.04;52.89;94901.84;4921908;29;20032;-81
2021/09/13 00:14:41;;;;;;;28.13;14.88;;;;;;;14.99;53.13;94898.16;4922319;29;20047;-80
2021/09/13 00:17:07;;;;;;;25.42;15.73;;;;;;;14.98;52.81;94907.06;4922202;29;20043;-80
2021/09/13 00:19:32;;;;;;;58.88;24.52;;;;;;;14.93;53.01;94904.41;4923767;29;20067;-80
2021/09/13 00:21:58;;;;;;;50.05;23.60;;;;;;;14.92;52.03;94902.84;5122048;23;20048;-82
2021/09/13 00:24:23;;;;;;;39.63;20.35;;;;;;;14.88;53.17;94912.25;4938071;29;20042;-82
2021/09/13 00:26:51;;;;;;;38.78;18.33;;;;;;;14.81;52.50;94906.47;4896278;29;20036;-83
2021/09/13 00:29:17;;;;;;;33.92;14.70;;;;;;;14.78;52.54;94911.41;4902848;29;20032;-82
2021/09/13 00:31:42;;;;;;;31.23;15.18;;;;;;;14.74;52.92;94911.13;4918796;29;20433;-82
2021/09/13 00:34:08;;;;;;;26.17;14.73;;;;;;;14.67;53.03;94906.16;4915978;29;20032;-83
2021/09/13 00:36:33;;;;;;;37.13;14.93;;;;;;;14.67;52.65;94905.34;4923353;29;20040;-83
2021/09/13 00:38:59;;;;;;;26.88;13.73;;;;;;;14.62;53.19;94908.72;4916775;29;20501;-82
2021/09/13 00:41:24;;;;;;;21.75;13.68;;;;;;;14.62;53.09;94907.94;4882968;29;20496;-82
2021/09/13 00:43:50;;;;;;;24.02;12.93;;;;;;;14.59;52.88;94903.22;4903987;29;20087;-82
2021/09/13 00:46:16;;;;;;;24.63;13.70;;;;;;;14.55;53.36;94910.78;4909194;29;20031;-81
2021/09/13 00:48:41;;;;;;;23.33;13.23;;;;;;;14.53;53.62;94906.84;4920366;29;20060;-82
2021/09/13 00:51:07;;;;;;;27.90;13.10;;;;;;;14.51;53.29;94901.88;4918619;29;20047;-83
2021/09/13 00:53:32;;;;;;;21.50;12.73;;;;;;;14.51;53.58;94909.72;4890940;29;20044;-82
2021/09/13 00:58:34;;;;;;;29.33;12.88;;;;;;;14.41;53.23;94907.00;5287936;23;20419;-80
2021/09/13 01:01:02;;;;;;;17.35;11.05;;;;;;;14.38;53.78;94908.31;4890717;29;20039;-80
2021/09/13 01:03:28;;;;;;;18.45;11.65;;;;;;;14.39;53.86;94904.66;4888431;29;20119;-83
2021/09/13 01:05:53;;;;;;;21.35;12.35;;;;;;;14.41;53.47;94913.03;4905094;29;20153;-82
2021/09/13 01:08:18;;;;;;;19.92;10.98;;;;;;;14.38;53.15;94905.69;4890283;29;20047;-82
2021/09/13 01:10:45;;;;;;;20.52;11.43;;;;;;;14.40;53.66;94910.66;4913933;29;20048;-83
2021/09/13 01:13:10;;;;;;;23.42;11.25;;;;;;;14.38;53.83;94899.69;4871763;29;20088;-82
2021/09/13 01:15:39;;;;;;;23.88;11.45;;;;;;;14.41;54.10;94913.03;4954142;23;20040;-82
2021/09/13 01:18:05;;;;;;;20.25;12.07;;;;;;;14.36;53.93;94905.16;4929326;29;20035;-83
2021/09/13 01:20:30;;;;;;;19.30;11.02;;;;;;;14.32;54.08;94911.16;4937031;29;20571;-83
2021/09/13 01:22:56;;;;;;;19.10;11.75;;;;;;;14.30;54.10;94914.00;4906019;29;20415;-83
2021/09/13 01:25:21;;;;;;;27.77;14.15;;;;;;;14.31;54.43;94914.78;4961464;23;21361;-82
2021/09/13 01:27:46;;;;;;;31.13;13.70;;;;;;;14.26;55.09;94918.16;4901671;29;20100;-83
2021/09/13 01:30:12;;;;;;;31.70;14.48;;;;;;;14.24;54.94;94925.47;4904200;29;20040;-82
2021/09/13 01:32:37;;;;;;;25.45;14.18;;;;;;;14.25;54.62;94918.41;4886196;29;20035;-82
2021/09/13 01:35:06;;;;;;;29.25;13.18;;;;;;;14.23;54.78;94931.75;4886543;29;20044;-82
2021/09/13 01:37:32;;;;;;;20.65;13.25;;;;;;;14.13;55.17;94929.06;4901048;29;20061;-82
2021/09/13 01:39:58;;;;;;;24.45;13.57;;;;;;;14.15;55.44;94929.59;4901397;29;20048;-82
2021/09/13 01:42:23;;;;;;;25.58;13.60;;;;;;;14.11;55.15;94924.06;4887107;29;20424;-82
2021/09/13 01:44:48;;;;;;;31.40;14.68;;;;;;;14.07;54.84;94925.63;4902877;29;20025;-82
2021/09/13 01:47:14;;;;;;;29.55;14.90;;;;;;;14.05;55.04;94929.53;4903501;29;20516;-82
2021/09/13 01:49:39;;;;;;;28.90;15.02;;;;;;;14.01;54.84;94928.47;4903882;29;20044;-82
2021/09/13 01:52:05;;;;;;;30.98;15.07;;;;;;;14.02;55.33;94932.66;4901635;29;20037;-82
2021/09/13 01:54:31;;;;;;;31.10;14.80;;;;;;;13.97;55.22;94932.59;4901046;29;20036;-81
2021/09/13 01:56:56;;;;;;;35.85;14.88;;;;;;;13.99;55.43;94931.31;4883910;29;20530;-80
2021/09/13 01:59:22;;;;;;;35.03;13.80;;;;;;;13.98;55.08;94939.38;4886705;29;20032;-81
2021/09/13 02:01:47;;;;;;;31.38;14.18;;;;;;;13.99;55.60;94940.97;4972552;23;20050;-82
2021/09/13 02:04:13;;;;;;;30.85;14.35;;;;;;;13.95;55.48;94942.50;4929690;29;20047;-81
2021/09/13 02:09:15;;;;;;;33.75;15.05;;;;;;;13.93;55.16;94941.97;4971629;23;20051;-83
2021/09/13 02:11:41;;;;;;;33.53;16.08;;;;;;;13.89;55.78;94936.47;4925570;29;20091;-82
2021/09/13 02:14:06;;;;;;;35.03;15.32;;;;;;;13.86;55.85;94936.19;4920805;29;20032;-82
2021/09/13 02:16:32;;;;;;;35.10;15.23;;;;;;;13.82;55.53;94931.41;4903803;29;20040;-82
2021/09/13 02:18:57;;;;;;;28.20;14.60;;;;;;;13.84;55.83;94940.88;4901586;29;20036;-82
2021/09/13 02:21:22;;;;;;;26.95;14.43;;;;;;;13.80;55.98;94938.72;4918544;29;20047;-81
2021/09/13 02:23:48;;;;;;;35.40;15.45;;;;;;;13.79;56.21;94941.59;4904727;29;20028;-81
2021/09/13 02:26:13;;;;;;;40.38;13.48;;;;;;;13.75;56.47;94943.13;4922057;29;20384;-82
2021/09/13 02:28:40;;;;;;;28.98;13.27;;;;;;;13.69;56.29;94942.31;4903379;29;20143;-82
2021/09/13 02:31:05;;;;;;;32.03;13.93;;;;;;;13.67;56.70;94933.13;4957497;23;20112;-81
2021/09/13 02:33:31;;;;;;;25.75;13.02;;;;;;;13.67;57.05;94939.16;4901612;29;20047;-81
2021/09/13 02:35:56;;;;;;;27.95;11.98;;;;;;;13.64;56.89;94939.63;4899899;29;20052;-81
2021/09/13 02:38:22;;;;;;;20.30;11.27;;;;;;;13.67;56.63;94938.38;4885104;29;20095;-81
2021/09/13 02:40:47;;;;;;;23.02;12.25;;;;;;;13.67;56.99;94944.38;4885756;29;20039;-80
2021/09/13 02:43:13;;;;;;;23.52;11.20;;;;;;;13.67;56.73;94941.75;4886176;29;20043;-81
2021/09/13 02:45:38;;;;;;;23.58;11.95;;;;;;;13.68;56.79;94945.16;4944566;23;20068;-81
2021/09/13 02:48:04;;;;;;;34.03;11.50;;;;;;;13.68;57.13;94945.97;4902925;29;20039;-82
2021/09/13 02:50:30;;;;;;;35.30;13.45;;;;;;;13.65;57.01;94954.25;4905488;29;20033;-81
2021/09/13 02:52:58;;;;;;;25.60;12.00;;;;;;;13.62;56.87;94946.94;4904478;29;20068;-82
2021/09/13 02:55:23;;;;;;;33.25;11.90;;;;;;;13.65;57.06;94953.47;4901868;29;20576;-82
2021/09/13 02:57:49;;;;;;;32.33;11.48;;;;;;;13.65;57.00;94956.88;4900540;29;20066;-81
2021/09/13 03:00:14;;;;;;;30.80;12.85;;;;;;;13.63;57.04;94947.72;4901552;29;20032;-79
2021/09/13 03:02:40;;;;;;;27.45;13.18;;;;;;;13.60;56.90;94951.63;4895670;29;20421;-81
2021/09/13 03:05:15;;;;;;;30.63;12.60;;;;;;;13.57;57.06;94959.94;4899655;29;20032;-81
2021/09/13 03:07:40;;;;;;;32.65;12.93;;;;;;;13.52;57.23;94952.06;4899555;29;20036;-81
2021/09/13 03:10:07;;;;;;;32.30;12.80;;;;;;;13.53;57.13;94958.88;4897758;29;20051;-82
2021/09/13 03:12:33;;;;;;;24.33;12.85;;;;;;;13.48;57.23;94956.19;4900969;29;20063;-82
2021/09/13 03:15:07;;;;;;;27.60;14.02;;;;;;;13.43;57.55;94956.16;4897694;29;20113;-81
2021/09/13 03:19:59;;;;;;;23.67;13.38;;;;;;;13.34;57.97;94960.22;4992025;23;20055;-81
2021/09/13 03:22:25;;;;;;;40.72;13.43;;;;;;;13.33;57.74;94958.63;4918806;29;20040;-82
2021/09/13 03:24:50;;;;;;;35.15;13.23;;;;;;;13.32;57.84;94959.66;4920292;29;20039;-82
2021/09/13 03:27:16;;;;;;;39.38;13.68;;;;;;;13.34;58.28;94957.59;4910874;29;20472;-81
2021/09/13 03:29:41;;;;;;;26.55;12.75;;;;;;;13.33;58.01;94963.84;4919375;29;20037;-82
2021/09/13 03:32:07;;;;;;;26.52;12.73;;;;;;;13.34;57.92;94963.66;4916362;29;20039;-82
2021/09/13 03:34:32;;;;;;;31.65;14.63;;;;;;;13.34;58.02;94971.47;4891216;29;20051;-81
2021/09/13 03:37:02;;;;;;;35.78;15.98;;;;;;;13.33;58.15;94964.66;4891307;29;20028;-81
2021/09/13 03:39:28;;;;;;;44.83;20.63;;;;;;;13.35;57.71;94964.44;4903917;29;20036;-80
2021/09/13 03:41:53;;;;;;;53.15;26.80;;;;;;;13.34;57.88;94973.28;4922143;29;20164;-81
2021/09/13 03:44:19;;;;;;;45.50;26.88;;;;;;;13.34;58.08;94968.03;4908532;29;20419;-81
2021/09/13 03:46:44;;;;;;;49.72;24.85;;;;;;;13.34;57.78;94971.47;4918664;29;20031;-82
2021/09/13 03:49:10;;;;;;;55.33;29.35;;;;;;;13.33;57.98;94974.31;4896366;29;20042;-81
2021/09/13 03:51:35;;;;;;;69.40;32.20;;;;;;;13.36;57.60;94973.84;4888926;29;20116;-81
2021/09/13 03:54:10;;;;;;;54.10;29.27;;;;;;;13.35;57.79;94975.66;4920752;29;20040;-82
2021/09/13 03:56:35;;;;;;;56.83;25.45;;;;;;;13.36;57.71;94977.25;4916337;29;20041;-82
2021/09/13 03:59:01;;;;;;;54.63;21.40;;;;;;;13.38;57.53;94983.00;4923359;29;20119;-81
2021/09/13 04:01:26;;;;;;;57.67;24.65;;;;;;;13.41;57.26;94981.72;4921840;29;20036;-82
2021/09/13 04:03:53;;;;;;;41.20;25.10;;;;;;;13.38;57.17;94983.00;4897264;29;20037;-82
2021/09/13 04:06:25;;;;;;;59.47;24.38;;;;;;;13.38;57.46;94977.00;4881076;29;20032;-82
2021/09/13 04:11:25;;;;;;;59.37;28.33;;;;;;;13.42;57.41;94984.09;4930324;29;20520;-81
2021/09/13 04:13:51;;;;;;;58.67;29.02;;;;;;;13.49;57.19;94994.34;4910688;29;20033;-80
2021/09/13 04:16:16;;;;;;;60.33;28.08;;;;;;;13.58;56.94;94992.88;4924631;29;20028;-79
2021/09/13 04:18:42;;;;;;;60.63;25.70;;;;;;;13.63;57.01;94995.53;4923651;29;20055;-82
2021/09/13 04:21:07;;;;;;;56.28;25.17;;;;;;;13.71;56.77;94997.72;4917255;29;20039;-82
2021/09/13 04:23:32;;;;;;;53.30;20.02;;;;;;;13.78;56.21;94998.31;4913677;29;20161;-80
2021/09/13 04:25:58;;;;;;;53.95;23.27;;;;;;;13.88;56.27;94996.84;4916587;29;20036;-80
2021/09/13 04:28:33;;;;;;;55.20;22.02;;;;;;;13.95;56.08;94998.19;4920282;29;20413;-80
2021/09/13 04:30:58;;;;;;;70.68;23.08;;;;;;;14.03;56.15;94999.59;4918079;29;20412;-80
2021/09/13 04:33:23;;;;;;;48.15;21.73;;;;;;;14.23;55.64;94998.97;4914761;29;20117;-81
2021/09/13 04:35:49;;;;;;;48.35;24.48;;;;;;;14.56;54.45;95003.94;4923583;29;20032;-81
2021/09/13 04:38:15;;;;;;;54.92;26.65;;;;;;;15.05;53.31;95005.53;4922508;29;20492;-81
2021/09/13 04:40:41;;;;;;;70.13;26.50;;;;;;;15.65;51.20;95005.03;4905876;29;20512;-81
2021/09/13 04:43:06;;;;;;;66.97;25.83;;;;;;;16.32;49.76;95008.53;4904324;29;20028;-81
2021/09/13 04:45:32;;;;;;;52.42;22.38;;;;;;;17.16;47.17;95001.88;4889038;29;20039;-81
2021/09/13 04:47:57;;;;;;;50.38;20.85;;;;;;;17.99;45.57;95002.81;4905980;29;20036;-81
2021/09/13 04:50:23;;;;;;;55.55;18.98;;;;;;;18.86;43.24;95004.75;4910458;29;20065;-84
2021/09/13 04:52:48;;;;;;;41.80;16.27;;;;;;;19.45;42.13;95003.59;4913223;29;21026;-84
2021/09/13 04:57:52;;;;;;;32.70;14.73;;;;;;;19.75;40.33;95003.25;5551722;23;20055;-83
2021/09/13 05:00:20;;;;;;;35.00;11.98;;;;;;;20.24;38.84;95004.66;4940058;29;20035;-80
2021/09/13 05:02:46;;;;;;;46.63;14.52;;;;;;;20.49;38.27;95015.91;4936536;29;20100;-82
2021/09/13 05:05:11;;;;;;;31.42;11.50;;;;;;;20.55;37.81;95014.78;4918218;29;20023;-84
2021/09/13 05:07:37;;;;;;;30.02;12.63;;;;;;;20.65;38.08;95014.59;4915721;29;20040;-84
2021/09/13 05:10:03;;;;;;;21.80;11.07;;;;;;;20.50;37.62;95022.75;4937623;29;20122;-85
2021/09/13 05:12:28;;;;;;;25.33;11.75;;;;;;;20.36;38.24;95023.50;4921706;29;20036;-84
2021/09/13 05:14:53;;;;;;;38.10;13.35;;;;;;;21.18;36.83;95024.78;4932985;29;20032;-82
2021/09/13 05:17:19;;;;;;;37.15;13.57;;;;;;;22.36;34.99;95008.06;4929950;29;20050;-84
2021/09/13 05:19:44;;;;;;;33.85;15.18;;;;;;;23.26;33.37;95014.03;4913292;29;20048;-84
2021/09/13 05:22:10;;;;;;;39.95;15.15;;;;;;;24.41;31.59;95018.22;4909737;29;20055;-85
2021/09/13 05:24:35;;;;;;;47.00;14.05;;;;;;;25.43;29.42;95018.28;4924507;29;20489;-85
2021/09/13 05:27:01;;;;;;;32.22;12.93;;;;;;;26.27;28.28;95019.97;4934908;29;20042;-85
2021/09/13 05:29:26;;;;;;;26.77;12.10;;;;;;;26.34;27.85;95024.75;4932849;29;20217;-84
2021/09/13 05:31:53;;;;;;;28.27;12.40;;;;;;;26.31;27.77;95026.19;5312384;23;20011;-84
2021/09/13 05:34:18;;;;;;;31.98;12.15;;;;;;;26.24;27.96;95025.97;4926512;29;20036;-86
2021/09/13 05:36:47;;;;;;;20.65;10.80;;;;;;;26.31;27.76;95020.88;4917433;29;20043;-86
2021/09/13 05:39:12;;;;;;;28.88;11.43;;;;;;;26.18;28.40;95021.91;4915929;29;20041;-87
2021/09/13 05:41:38;;;;;;;29.17;11.32;;;;;;;26.21;27.81;95021.28;4915514;29;20409;-87
2021/09/13 05:44:05;;;;;;;27.15;11.68;;;;;;;26.12;28.25;95023.22;4914469;29;20496;-85
2021/09/13 05:46:31;;;;;;;27.77;10.90;;;;;;;26.20;28.35;95019.72;4912117;29;20032;-86
2021/09/13 05:48:56;;;;;;;26.42;10.73;;;;;;;26.23;28.10;95024.41;4915726;29;20076;-81
2021/09/13 05:51:22;;;;;;;28.92;12.20;;;;;;;26.19;28.24;95018.13;4911369;29;20036;-85
2021/09/13 05:53:47;;;;;;;23.05;10.52;;;;;;;26.19;27.68;95020.81;4910685;29;20036;-85
2021/09/13 05:56:12;;;;;;;19.80;9.85;;;;;;;25.99;27.90;95019.69;4907877;29;20036;-79
2021/09/13 05:58:38;;;;;;;23.00;11.20;;;;;;;25.76;28.25;95025.66;4906416;29;20036;-77
2021/09/13 06:01:04;;;;;;;24.73;11.95;;;;;;;25.48;28.99;95020.75;4914039;23;20052;-78
2021/09/13 06:03:29;;;;;;;21.90;10.48;;;;;;;25.30;29.58;95027.25;4914963;29;20042;-78
2021/09/13 06:05:55;;;;;;;24.27;10.80;;;;;;;25.15;29.52;95025.91;4895623;29;20420;-78
2021/09/13 06:08:20;;;;;;;37.28;11.80;;;;;;;25.19;30.02;95028.69;4880008;29;20496;-77
2021/09/13 06:10:46;;;;;;;29.60;11.15;;;;;;;25.25;29.57;95022.13;4885530;29;20041;-79
2021/09/13 06:13:21;;;;;;;23.85;11.77;;;;;;;25.19;29.18;95023.38;4900542;29;20036;-79
2021/09/13 06:15:46;;;;;;;17.88;10.55;;;;;;;25.14;29.00;95022.47;4893514;29;20612;-76
2021/09/13 06:18:14;;;;;;;27.20;11.07;;;;;;;25.03;29.68;95026.56;4922687;29;20032;-79
2021/09/13 06:20:39;;;;;;;19.33;11.15;;;;;;;25.01;29.58;95018.13;4905711;29;20066;-79
2021/09/13 06:23:05;;;;;;;23.88;11.50;;;;;;;25.07;29.92;95026.72;4926258;29;20526;-77
2021/09/13 06:25:30;;;;;;;22.98;11.20;;;;;;;25.09;29.50;95027.97;4923697;29;20027;-77
2021/09/13 06:27:56;;;;;;;20.15;11.82;;;;;;;24.98;29.81;95024.03;4922747;29;20497;-76
2021/09/13 06:30:21;;;;;;;19.08;11.07;;;;;;;24.91;30.24;95029.09;4922316;29;20511;-75
2021/09/13 06:32:46;;;;;;;35.15;12.02;;;;;;;24.82;29.68;95020.31;4921161;29;20040;-77
2021/09/13 06:35:12;;;;;;;26.20;12.10;;;;;;;24.64;30.17;95029.44;4922555;29;20543;-77
2021/09/13 06:37:37;;;;;;;22.13;11.93;;;;;;;24.60;29.83;95023.19;4923802;29;20032;-76
2021/09/13 06:40:03;;;;;;;28.60;11.65;;;;;;;24.62;29.60;95029.75;4922054;29;20036;-76
2021/09/13 06:42:30;;;;;;;31.77;11.73;;;;;;;24.66;29.74;95029.91;4905722;29;20043;-76
2021/09/13 06:44:56;;;;;;;39.22;12.48;;;;;;;24.75;30.59;95025.38;4905861;29;20492;-77
2021/09/13 06:47:54;;;;;;;;;;;;;;;;;;;;;
2021/09/13 06:49:59;;;;;;;22.17;11.13;;;;;;;25.02;29.04;95029.53;4932125;24;20048;-76
2021/09/13 06:52:24;;;;;;;29.00;12.00;;;;;;;24.99;29.49;95030.16;4922288;29;20062;-76
2021/09/13 06:54:50;;;;;;;40.08;12.00;;;;;;;25.02;29.10;95030.31;4922704;29;20036;-76
2021/09/13 06:57:21;;;;;;;38.38;11.38;;;;;;;25.08;29.71;95033.59;4904450;29;20491;-76
2021/09/13 06:59:50;;;;;;;33.05;12.35;;;;;;;25.06;29.29;95036.59;4707892;23;20059;-78
2021/09/13 07:02:15;;;;;;;44.85;14.20;;;;;;;24.90;29.38;95027.53;4912647;29;20038;-77
2021/09/13 07:04:41;;;;;;;26.77;13.32;;;;;;;24.80;29.68;95038.50;4911656;29;20048;-78
2021/09/13 07:07:06;;;;;;;31.23;12.80;;;;;;;24.71;30.37;95027.84;4896004;29;20068;-78
2021/09/13 07:09:32;;;;;;;37.45;14.20;;;;;;;24.75;30.58;95036.00;4911582;29;20452;-77
2021/09/13 07:11:57;;;;;;;34.63;14.93;;;;;;;24.86;30.10;95037.22;4895998;29;20048;-77
2021/09/13 07:14:23;;;;;;;33.08;14.00;;;;;;;24.87;30.26;95040.66;4912649;29;20032;-78
2021/09/13 07:16:48;;;;;;;32.92;13.65;;;;;;;24.91;29.79;95038.94;4897217;29;20040;-81
2021/09/13 07:19:14;;;;;;;35.08;13.73;;;;;;;24.97;29.98;95041.09;4912340;29;20488;-78
2021/09/13 07:21:40;;;;;;;28.80;13.77;;;;;;;24.86;29.96;95037.22;4912455;29;20083;-79
2021/09/13 07:24:05;;;;;;;30.33;13.40;;;;;;;24.79;30.73;95031.59;4908782;29;20069;-75
2021/09/13 07:26:31;;;;;;;28.48;12.82;;;;;;;24.88;30.23;95035.00;4911923;29;20096;-75
2021/09/13 07:28:56;;;;;;;26.15;12.82;;;;;;;25.02;30.20;95034.84;4912268;29;20036;-74
2021/09/13 07:31:22;;;;;;;30.73;14.02;;;;;;;25.12;29.70;95035.31;4895775;29;20040;-77
2021/09/13 07:33:47;;;;;;;44.00;15.15;;;;;;;25.23;29.47;95029.66;4881020;29;20036;-76
2021/09/13 07:36:12;;;;;;;32.88;14.07;;;;;;;25.21;29.82;95031.81;4908307;29;20051;-77
2021/09/13 07:38:38;;;;;;;32.25;13.65;;;;;;;25.16;29.52;95035.44;4911915;29;20032;-76
2021/09/13 07:41:03;;;;;;;41.40;14.40;;;;;;;25.19;30.09;95034.03;4912705;29;20047;-79
2021/09/13 07:43:29;;;;;;;32.95;14.52;;;;;;;25.24;30.19;95031.22;4911542;29;20044;-76
2021/09/13 07:45:54;;;;;;;32.78;14.98;;;;;;;25.32;29.47;95033.81;4910720;29;20456;-75
2021/09/13 07:48:22;;;;;;;35.05;13.52;;;;;;;25.36;29.47;95032.06;4910732;29;20528;-76
2021/09/13 07:50:48;;;;;;;34.75;13.57;;;;;;;25.46;29.33;95038.94;4895203;29;20028;-75
2021/09/13 07:53:13;;;;;;;40.72;13.70;;;;;;;25.45;29.52;95037.38;4894685;29;20039;-75
2021/09/13 07:55:38;;;;;;;38.05;14.02;;;;;;;25.42;29.48;95038.03;4908958;29;20036;-76
2021/09/13 07:58:04;;;;;;;32.17;11.95;;;;;;;25.32;29.25;95043.69;4911574;29;20065;-75
2021/09/13 08:00:29;;;;;;;33.30;13.15;;;;;;;25.28;29.68;95038.22;4910866;29;20029;-76
2021/09/13 08:02:55;;;;;;;26.88;12.55;;;;;;;25.29;29.49;95033.69;4910566;29;20032;-76
2021/09/13 08:05:20;;;;;;;30.77;13.05;;;;;;;25.34;29.70;95046.81;4910438;29;20522;-75
2021/09/13 08:07:46;;;;;;;33.60;12.70;;;;;;;25.33;29.39;95037.25;4909815;29;20579;-75
2021/09/13 08:10:11;;;;;;;32.42;12.43;;;;;;;25.33;29.22;95038.03;4911426;29;20040;-77
2021/09/13 08:12:37;;;;;;;32.55;12.15;;;;;;;25.39;29.22;95033.34;4910120;29;20043;-75
2021/09/13 08:15:03;;;;;;;30.90;12.02;;;;;;;25.49;29.55;95027.63;4910541;29;20504;-75
2021/09/13 08:17:28;;;;;;;29.00;11.55;;;;;;;25.43;28.93;95034.25;4914650;29;20076;-75
2021/09/13 08:19:55;;;;;;;27.98;11.93;;;;;;;25.30;29.29;95030.69;4914086;29;20039;-75
2021/09/13 08:22:22;;;;;;;23.17;11.55;;;;;;;25.29;29.11;95028.34;4915560;29;20122;-77
2021/09/13 08:24:50;;;;;;;31.58;11.02;;;;;;;25.29;29.05;95029.13;4898221;29;20031;-76
2021/09/13 08:27:16;;;;;;;32.15;11.73;;;;;;;25.37;28.96;95027.53;4913120;29;20041;-80
2021/09/13 08:29:42;;;;;;;26.75;11.80;;;;;;;25.25;29.21;95035.44;4898116;29;20024;-77
2021/09/13 08:32:08;;;;;;;33.67;11.10;;;;;;;25.26;29.21;95029.78;4908196;29;20080;-75
2021/09/13 08:34:36;;;;;;;31.00;11.20;;;;;;;25.36;29.20;95028.63;4895949;29;20381;-76
2021/09/13 08:37:01;;;;;;;27.33;10.70;;;;;;;25.49;28.99;95027.63;4894699;29;20043;-74
2021/09/13 08:39:27;;;;;;;21.35;10.40;;;;;;;25.62;29.59;95028.53;4908361;29;20040;-77
2021/09/13 08:41:53;;;;;;;22.75;10.00;;;;;;;25.75;29.13;95026.75;4891641;29;20264;-77
2021/09/13 08:44:19;;;;;;;42.92;11.90;;;;;;;25.84;29.00;95022.94;4905904;29;20028;-76
2021/09/13 08:46:56;;;;;;;32.63;10.13;;;;;;;25.87;29.10;95019.66;4912651;29;20036;-77
2021/09/13 08:49:30;;;;;;;16.52;10.32;;;;;;;25.95;28.46;95015.34;4896930;29;20495;-77
2021/09/13 08:51:56;;;;;;;29.85;11.02;;;;;;;26.01;28.11;95017.47;4909052;29;20127;-76
2021/09/13 08:54:24;;;;;;;32.13;11.63;;;;;;;25.88;27.92;95023.09;4908093;29;20082;-76
2021/09/13 08:56:53;;;;;;;30.10;10.63;;;;;;;25.81;28.33;95017.47;4892515;29;20035;-77
2021/09/13 08:59:22;;;;;;;23.55;10.55;;;;;;;25.81;28.21;95017.47;4910434;29;20069;-76
2021/09/13 09:01:48;;;;;;;30.83;10.55;;;;;;;25.81;28.13;95004.94;4895362;29;20525;-77
2021/09/13 09:04:13;;;;;;;23.98;11.00;;;;;;;25.85;28.48;95007.72;4912278;29;20109;-77
2021/09/13 09:06:41;;;;;;;22.13;10.13;;;;;;;25.96;28.59;95003.59;4913968;29;20079;-77
2021/09/13 09:09:20;;;;;;;23.00;9.55;;;;;;;26.07;29.30;95004.75;4911264;29;20040;-77
2021/09/13 09:11:54;;;;;;;26.58;10.88;;;;;;;26.19;28.92;95002.13;4912714;29;20036;-75
2021/09/13 09:14:42;;;;;;;14.35;9.13;;;;;;;26.23;29.01;95002.28;4914097;29;20175;-75
2021/09/13 09:17:21;;;;;;;21.05;10.10;;;;;;;26.25;27.34;95000.84;4908867;29;20127;-76
2021/09/13 09:19:47;;;;;;;16.60;10.45;;;;;;;26.27;27.75;94998.63;4912261;29;20660;-76
2021/09/13 09:22:26;;;;;;;21.83;9.93;;;;;;;26.21;27.87;94991.19;4911708;29;20120;-76
2021/09/13 09:24:52;;;;;;;21.92;9.40;;;;;;;26.18;27.52;94989.91;4898376;29;20044;-75
2021/09/13 09:27:19;;;;;;;26.85;9.18;;;;;;;26.17;28.03;94982.25;4912944;29;20071;-75
2021/09/13 09:29:44;;;;;;;25.52;8.63;;;;;;;26.18;27.36;94986.47;4894327;29;20035;-75
2021/09/13 09:32:10;;;;;;;25.10;9.15;;;;;;;26.13;28.12;94982.13;4905243;29;20110;-77
2021/09/13 09:34:37;;;;;;;14.55;8.60;;;;;;;26.17;28.72;94983.03;4894059;29;20040;-77
2021/09/13 09:37:06;;;;;;;16.45;8.35;;;;;;;26.23;28.94;94973.75;4912488;29;20025;-77
2021/09/13 09:39:54;;;;;;;10.80;7.60;;;;;;;26.27;26.62;94974.66;4913910;29;20040;-77
2021/09/13 09:42:28;;;;;;;9.75;6.68;;;;;;;26.32;26.54;94974.44;4926920;29;20036;-77
2021/09/13 09:44:54;;;;;;;11.30;7.68;;;;;;;26.38;28.37;94971.63;4914497;29;20032;-77
2021/09/13 09:47:20;;;;;;;13.95;9.65;;;;;;;26.39;27.50;94973.97;4898399;29;20056;-77
2021/09/13 09:49:47;;;;;;;16.75;8.82;;;;;;;26.40;27.84;94969.41;4913167;29;20420;-77
2021/09/13 09:52:35;;;;;;;24.55;10.52;;;;;;;26.37;26.01;94960.19;4913769;29;20527;-77
2021/09/13 09:55:17;;;;;;;16.40;8.50;;;;;;;26.41;27.34;94970.97;4898632;29;20047;-77
2021/09/13 09:57:44;;;;;;;13.15;6.72;;;;;;;26.41;25.58;94970.97;4913400;29;20024;-77
2021/09/13 10:00:24;;;;;;;18.73;5.50;;;;;;;26.32;25.07;94960.31;4912490;29;20040;-75
2021/09/13 10:02:49;;;;;;;17.02;6.85;;;;;;;26.30;26.16;94960.66;4927721;29;20039;-76
2021/09/13 10:05:15;;;;;;;22.85;7.93;;;;;;;26.26;25.55;94957.09;4914020;29;20036;-75
2021/09/13 10:07:41;;;;;;;18.48;7.20;;;;;;;26.28;25.72;94968.22;4914343;29;20044;-70
2021/09/13 10:10:08;;;;;;;15.07;7.53;;;;;;;26.27;25.81;94950.66;4915808;29;20480;-78
2021/09/13 10:12:34;;;;;;;11.02;6.82;;;;;;;26.27;27.38;94956.00;4898922;29;20096;-80
2021/09/13 10:15:02;;;;;;;12.75;6.43;;;;;;;26.15;25.77;94958.59;4902305;29;20080;-80
2021/09/13 10:17:28;;;;;;;11.55;6.90;;;;;;;26.11;25.73;94952.38;4904196;29;20051;-78
2021/09/13 10:19:53;;;;;;;17.40;7.90;;;;;;;25.81;26.27;94958.88;4902246;29;20032;-79
2021/09/13 10:22:21;;;;;;;14.40;6.75;;;;;;;25.49;27.31;94958.41;4903842;29;20440;-80
2021/09/13 10:24:50;;;;;;;16.58;7.35;;;;;;;25.57;28.04;94949.59;4923334;29;20030;-82
2021/09/13 10:27:19;;;;;;;18.55;7.22;;;;;;;25.70;27.75;94950.47;4909547;29;20095;-79
2021/09/13 10:29:47;;;;;;;11.48;6.75;;;;;;;25.80;27.26;94941.31;4893211;29;20028;-82
2021/09/13 10:32:14;;;;;;;13.68;7.20;;;;;;;25.69;27.03;94949.69;4902952;29;20052;-81
2021/09/13 10:34:39;;;;;;;10.25;7.15;;;;;;;25.33;27.15;94946.75;4917892;29;20033;-80
2021/09/13 10:37:07;;;;;;;19.27;7.10;;;;;;;25.26;27.28;94949.16;4917218;29;20052;-80
2021/09/13 10:40:04;;;;;;;10.88;7.50;;;;;;;25.35;27.66;94942.66;4914044;29;20079;-80
2021/09/13 10:42:37;;;;;;;12.63;7.07;;;;;;;25.28;27.63;94939.75;4915527;29;20048;-80
2021/09/13 10:45:24;;;;;;;11.50;7.18;;;;;;;25.39;27.27;94948.16;4916864;29;20028;-80
2021/09/13 10:47:59;;;;;;;13.00;7.28;;;;;;;25.48;27.55;94945.41;4915155;29;20060;-80
2021/09/13 10:50:27;;;;;;;25.63;7.07;;;;;;;25.47;27.38;94941.97;4915297;29;20047;-80
2021/09/13 10:52:56;;;;;;;25.08;7.22;;;;;;;25.56;27.08;94936.63;4914187;29;20625;-80
2021/09/13 10:55:49;;;;;;;15.40;7.03;;;;;;;25.62;27.36;94930.75;4914547;29;20533;-79
2021/09/13 10:58:14;;;;;;;15.18;6.68;;;;;;;25.71;26.99;94931.53;4915875;29;20048;-79
2021/09/13 11:00:39;;;;;;;11.73;5.93;;;;;;;25.76;26.68;94932.44;4916175;29;20036;-80
2021/09/13 11:03:29;;;;;;;9.50;6.00;;;;;;;25.80;26.45;94930.66;4918127;29;20044;-80
2021/09/13 11:06:24;;;;;;;13.65;6.13;;;;;;;25.85;26.50;94917.91;4916674;29;20285;-80
2021/09/13 11:08:50;;;;;;;12.32;6.65;;;;;;;25.81;26.91;94926.91;4917509;29;20042;-80
2021/09/13 11:11:26;;;;;;;18.20;5.70;;;;;;;25.71;26.88;94912.09;4917132;29;20024;-79
2021/09/13 11:13:59;;;;;;;10.60;6.07;;;;;;;25.63;26.96;94912.91;4917004;29;20078;-79
2021/09/13 11:19:47;;;;;;;13.53;6.90;;;;;;;25.60;27.44;94914.34;4916658;29;20055;-80
2021/09/13 11:22:12;;;;;;;10.57;6.25;;;;;;;25.68;27.33;94916.16;4916762;29;20284;-80
2021/09/13 11:24:39;;;;;;;10.02;6.13;;;;;;;25.76;27.19;94911.13;4917024;29;20062;-80
2021/09/13 11:27:13;;;;;;;16.52;6.20;;;;;;;25.78;26.71;94907.03;4899777;29;20032;-80
2021/09/13 11:29:40;;;;;;;18.23;5.93;;;;;;;25.83;26.74;94893.50;4899045;29;20073;-79
2021/09/13 11:32:10;;;;;;;8.48;6.47;;;;;;;25.60;27.37;94909.00;4916033;29;20111;-79
2021/09/13 11:34:35;;;;;;;11.75;6.68;;;;;;;25.40;27.77;94901.78;4898760;29;20067;-79
2021/09/13 11:37:14;;;;;;;15.50;7.15;;;;;;;25.44;27.27;94894.72;4914563;29;20078;-79